createdAt,value
2018-09-26T00:00:01.316Z,99.90
2018-09-26T00:01:45.491Z,99.90
2018-09-26T00:03:02.260Z,99.90
2018-09-26T00:04:09.198Z,99.90
2018-09-26T00:05:12.616Z,99.90
2018-09-26T00:06:15.979Z,99.90
2018-09-26T00:07:19.320Z,99.90
2018-09-26T00:08:22.655Z,99.90
2018-09-26T00:09:26.293Z,99.90
2018-09-26T00:10:29.598Z,99.90
2018-09-26T00:11:32.920Z,99.90
2018-09-26T00:12:36.259Z,99.90
2018-09-26T00:13:39.549Z,99.90
2018-09-26T00:14:42.855Z,99.90
2018-09-26T00:15:46.183Z,99.90
2018-09-26T00:16:49.484Z,99.90
2018-09-26T00:17:52.986Z,99.90
2018-09-26T00:18:56.287Z,99.90
2018-09-26T00:19:59.587Z,99.90
2018-09-26T00:21:02.892Z,99.90
2018-09-26T00:22:06.207Z,99.90
2018-09-26T00:23:09.526Z,99.90
2018-09-26T00:24:12.866Z,99.90
2018-09-26T00:25:16.199Z,99.90
2018-09-26T00:26:19.503Z,99.90
2018-09-26T00:27:22.812Z,99.90
2018-09-26T00:28:26.109Z,99.90
2018-09-26T00:29:29.443Z,99.90
2018-09-26T00:30:32.755Z,99.90
2018-09-26T00:31:36.052Z,99.90
2018-09-26T00:32:39.343Z,99.90
2018-09-26T00:33:42.648Z,99.90
2018-09-26T00:34:45.971Z,99.90
2018-09-26T00:35:49.301Z,99.90
2018-09-26T00:36:52.677Z,99.90
2018-09-26T00:37:55.991Z,99.90
2018-09-26T00:38:59.313Z,99.90
2018-09-26T00:40:02.607Z,99.90
2018-09-26T00:41:06.199Z,99.90
2018-09-26T00:42:09.498Z,99.90
2018-09-26T00:43:12.798Z,99.90
2018-09-26T00:44:16.096Z,99.90
2018-09-26T00:45:19.428Z,99.90
2018-09-26T00:46:22.723Z,99.90
2018-09-26T00:47:26.066Z,99.90
2018-09-26T00:48:29.350Z,99.90
2018-09-26T00:49:32.683Z,99.90
2018-09-26T00:50:35.996Z,99.90
2018-09-26T00:51:39.298Z,99.90
2018-09-26T00:52:42.639Z,99.90
2018-09-26T00:53:45.935Z,99.90
2018-09-26T00:54:49.239Z,99.90
2018-09-26T00:55:52.529Z,99.90
2018-09-26T00:56:55.847Z,99.90
2018-09-26T00:57:59.187Z,99.90
2018-09-26T00:59:02.516Z,99.90
2018-09-26T01:00:05.875Z,99.90
2018-09-26T01:01:09.170Z,99.90
2018-09-26T01:02:12.466Z,99.90
2018-09-26T01:03:15.824Z,99.90
2018-09-26T01:04:19.139Z,99.90
2018-09-26T01:05:22.468Z,99.90
2018-09-26T01:06:25.830Z,99.90
2018-09-26T01:07:29.140Z,99.90
2018-09-26T01:08:32.441Z,99.90
2018-09-26T01:09:35.776Z,99.90
2018-09-26T01:10:39.066Z,99.90
2018-09-26T01:11:42.380Z,99.90
2018-09-26T01:12:45.740Z,99.90
2018-09-26T01:13:49.035Z,99.90
2018-09-26T01:14:52.394Z,99.90
2018-09-26T01:15:55.690Z,99.90
2018-09-26T01:16:58.991Z,99.90
2018-09-26T01:18:02.290Z,99.90
2018-09-26T01:19:05.605Z,99.90
2018-09-26T01:20:09.083Z,99.90
2018-09-26T01:21:12.387Z,99.90
2018-09-26T01:22:15.724Z,99.90
2018-09-26T01:23:19.042Z,99.90
2018-09-26T01:24:22.366Z,99.90
2018-09-26T01:25:25.675Z,99.90
2018-09-26T01:26:29.008Z,99.90
2018-09-26T01:27:34.304Z,99.90
2018-09-26T01:28:37.635Z,99.90
2018-09-26T01:29:40.923Z,99.90
2018-09-26T01:30:44.238Z,99.90
2018-09-26T01:31:47.548Z,99.90
2018-09-26T01:32:50.883Z,99.90
2018-09-26T01:33:54.208Z,99.90
2018-09-26T01:34:57.519Z,99.90
2018-09-26T01:36:00.824Z,99.90
2018-09-26T01:37:04.799Z,99.90
2018-09-26T01:38:08.118Z,99.90
2018-09-26T01:39:11.484Z,99.90
2018-09-26T01:40:14.784Z,99.90
2018-09-26T01:41:18.195Z,99.90
2018-09-26T01:42:21.419Z,99.90
2018-09-26T01:43:24.761Z,99.90
2018-09-26T01:44:28.075Z,99.90
2018-09-26T01:45:31.431Z,99.90
2018-09-26T01:46:34.731Z,99.90
2018-09-26T01:47:38.080Z,99.90
2018-09-26T01:48:41.410Z,99.90
2018-09-26T01:49:44.751Z,99.90
2018-09-26T01:50:48.051Z,99.90
2018-09-26T01:51:51.391Z,99.90
2018-09-26T01:52:54.698Z,99.90
2018-09-26T01:53:58.019Z,99.90
2018-09-26T01:55:01.347Z,99.90
2018-09-26T01:56:04.658Z,99.90
2018-09-26T01:57:08.110Z,99.90
2018-09-26T01:58:11.430Z,99.90
2018-09-26T01:59:14.759Z,99.90
2018-09-26T02:00:18.078Z,99.90
2018-09-26T02:01:21.434Z,99.90
2018-09-26T02:02:24.747Z,99.90
2018-09-26T02:03:28.056Z,99.90
2018-09-26T02:04:31.395Z,99.90
2018-09-26T02:05:34.766Z,99.90
2018-09-26T02:06:38.116Z,99.90
2018-09-26T02:07:41.434Z,99.90
2018-09-26T02:08:44.797Z,99.90
2018-09-26T02:09:48.111Z,99.90
2018-09-26T02:10:51.430Z,99.90
2018-09-26T02:11:54.754Z,99.90
2018-09-26T02:12:58.087Z,99.90
2018-09-26T02:14:01.457Z,99.90
2018-09-26T02:15:04.789Z,99.90
2018-09-26T02:16:08.116Z,99.90
2018-09-26T02:17:11.459Z,99.90
2018-09-26T02:18:14.802Z,99.90
2018-09-26T02:19:18.114Z,99.90
2018-09-26T02:20:21.470Z,99.90
2018-09-26T02:21:24.778Z,99.90
2018-09-26T02:22:28.116Z,99.90
2018-09-26T02:23:31.478Z,99.90
2018-09-26T02:24:34.757Z,99.90
2018-09-26T02:25:38.104Z,99.90
2018-09-26T02:26:41.432Z,99.90
2018-09-26T02:27:44.731Z,99.90
2018-09-26T02:28:48.039Z,99.90
2018-09-26T02:29:51.381Z,99.90
2018-09-26T02:30:54.759Z,99.90
2018-09-26T02:31:58.071Z,99.90
2018-09-26T02:33:01.390Z,99.90
2018-09-26T02:34:04.711Z,99.90
2018-09-26T02:35:08.041Z,99.90
2018-09-26T02:36:11.376Z,99.90
2018-09-26T02:37:14.680Z,99.90
2018-09-26T02:38:18.019Z,99.90
2018-09-26T02:39:21.328Z,99.90
2018-09-26T02:40:24.659Z,99.90
2018-09-26T02:41:27.988Z,99.90
2018-09-26T02:42:31.322Z,99.90
2018-09-26T02:43:34.654Z,99.90
2018-09-26T02:44:38.019Z,99.90
2018-09-26T02:45:41.335Z,99.90
2018-09-26T02:46:44.660Z,99.90
2018-09-26T02:47:48.014Z,99.90
2018-09-26T02:48:56.731Z,99.90
2018-09-26T02:50:00.051Z,99.90
2018-09-26T02:51:03.401Z,99.90
2018-09-26T02:52:06.858Z,99.90
2018-09-26T02:53:10.179Z,99.90
2018-09-26T02:54:13.498Z,99.90
2018-09-26T02:55:16.888Z,99.90
2018-09-26T02:56:20.203Z,99.90
2018-09-26T02:57:23.520Z,99.90
2018-09-26T02:58:26.833Z,99.90
2018-09-26T02:59:30.183Z,99.90
2018-09-26T03:00:33.494Z,99.90
2018-09-26T03:01:36.850Z,99.90
2018-09-26T03:02:40.179Z,99.90
2018-09-26T03:03:43.501Z,99.90
2018-09-26T03:04:46.847Z,99.90
2018-09-26T03:05:50.169Z,99.90
2018-09-26T03:06:53.485Z,99.90
2018-09-26T03:07:56.794Z,99.90
2018-09-26T03:09:00.120Z,99.90
2018-09-26T03:10:03.523Z,99.90
2018-09-26T03:11:06.852Z,99.90
2018-09-26T03:12:10.191Z,99.90
2018-09-26T03:13:13.494Z,99.90
2018-09-26T03:14:16.841Z,99.90
2018-09-26T03:15:20.165Z,99.90
2018-09-26T03:16:23.545Z,99.90
2018-09-26T03:17:26.890Z,99.90
2018-09-26T03:18:30.192Z,99.90
2018-09-26T03:19:33.515Z,99.90
2018-09-26T03:20:36.828Z,99.90
2018-09-26T03:21:40.175Z,99.90
2018-09-26T03:22:43.490Z,99.90
2018-09-26T03:23:46.892Z,99.90
2018-09-26T03:24:50.187Z,99.90
2018-09-26T03:25:53.499Z,99.90
2018-09-26T03:26:56.815Z,99.90
2018-09-26T03:28:00.126Z,99.90
2018-09-26T03:29:03.487Z,99.90
2018-09-26T03:30:06.836Z,99.90
2018-09-26T03:31:10.151Z,99.90
2018-09-26T03:32:13.507Z,99.90
2018-09-26T03:33:16.860Z,99.90
2018-09-26T03:34:20.207Z,99.90
2018-09-26T03:35:23.512Z,99.90
2018-09-26T03:36:26.821Z,99.90
2018-09-26T03:37:30.139Z,99.90
2018-09-26T03:38:33.511Z,99.90
2018-09-26T03:39:36.844Z,99.90
2018-09-26T03:40:40.171Z,99.90
2018-09-26T03:41:43.544Z,99.90
2018-09-26T03:42:46.882Z,99.90
2018-09-26T03:43:50.200Z,99.90
2018-09-26T03:44:53.538Z,99.90
2018-09-26T03:45:56.900Z,99.90
2018-09-26T03:47:00.215Z,99.90
2018-09-26T03:48:03.527Z,99.90
2018-09-26T03:49:06.898Z,99.90
2018-09-26T03:50:10.255Z,99.90
2018-09-26T03:51:13.579Z,99.90
2018-09-26T03:52:16.889Z,99.90
2018-09-26T03:53:20.217Z,99.90
2018-09-26T03:54:23.599Z,99.90
2018-09-26T03:55:26.921Z,99.90
2018-09-26T03:56:30.274Z,99.90
2018-09-26T03:57:33.594Z,99.90
2018-09-26T03:58:36.928Z,99.90
2018-09-26T03:59:40.240Z,99.90
2018-09-26T04:00:43.659Z,99.90
2018-09-26T04:01:46.966Z,99.90
2018-09-26T04:02:50.291Z,99.90
2018-09-26T04:03:53.640Z,99.90
2018-09-26T04:04:57.044Z,99.90
2018-09-26T04:06:00.348Z,99.90
2018-09-26T04:07:03.656Z,99.90
2018-09-26T04:08:07.023Z,99.90
2018-09-26T04:09:10.380Z,99.90
2018-09-26T04:10:13.692Z,99.90
2018-09-26T04:11:17.069Z,99.90
2018-09-26T04:12:20.386Z,99.90
2018-09-26T04:13:23.793Z,99.90
2018-09-26T04:14:27.200Z,99.90
2018-09-26T04:15:30.599Z,99.90
2018-09-26T04:16:33.946Z,99.90
2018-09-26T04:17:37.258Z,99.90
2018-09-26T04:18:40.573Z,99.90
2018-09-26T04:19:43.929Z,99.90
2018-09-26T04:20:47.246Z,99.90
2018-09-26T04:21:50.584Z,99.90
2018-09-26T04:22:53.914Z,99.90
2018-09-26T04:23:57.303Z,99.90
2018-09-26T04:25:00.641Z,99.90
2018-09-26T04:26:03.970Z,99.90
2018-09-26T04:27:07.394Z,99.90
2018-09-26T04:28:10.700Z,99.90
2018-09-26T04:29:14.166Z,99.90
2018-09-26T04:30:17.667Z,99.90
2018-09-26T04:31:20.876Z,99.90
2018-09-26T04:32:24.233Z,99.90
2018-09-26T04:33:27.641Z,99.90
2018-09-26T04:34:30.983Z,99.90
2018-09-26T04:35:34.307Z,99.90
2018-09-26T04:36:37.638Z,99.90
2018-09-26T04:37:40.973Z,99.90
2018-09-26T04:38:44.379Z,99.90
2018-09-26T04:39:47.698Z,99.90
2018-09-26T04:40:51.046Z,99.90
2018-09-26T04:41:54.371Z,99.90
2018-09-26T04:42:57.786Z,99.90
2018-09-26T04:44:01.106Z,99.90
2018-09-26T04:45:05.299Z,99.90
2018-09-26T04:46:08.659Z,99.90
2018-09-26T04:47:11.996Z,99.90
2018-09-26T04:48:15.334Z,99.90
2018-09-26T04:49:18.704Z,99.90
2018-09-26T04:50:22.039Z,99.90
2018-09-26T04:51:25.367Z,99.90
2018-09-26T04:52:28.749Z,99.90
2018-09-26T04:53:32.082Z,99.90
2018-09-26T04:54:35.456Z,99.90
2018-09-26T04:55:38.782Z,99.90
2018-09-26T04:56:42.115Z,99.90
2018-09-26T04:57:45.828Z,99.90
2018-09-26T04:58:49.139Z,99.90
2018-09-26T04:59:52.451Z,99.90
2018-09-26T05:00:55.805Z,99.90
2018-09-26T05:01:59.139Z,99.90
2018-09-26T05:03:02.471Z,99.90
2018-09-26T05:04:05.935Z,99.90
2018-09-26T05:05:09.271Z,99.90
2018-09-26T05:06:12.636Z,99.90
2018-09-26T05:07:15.956Z,99.90
2018-09-26T05:08:19.297Z,99.90
2018-09-26T05:09:22.673Z,99.90
2018-09-26T05:10:25.995Z,99.90
2018-09-26T05:11:29.307Z,99.90
2018-09-26T05:12:32.678Z,99.90
2018-09-26T05:13:35.978Z,99.90
2018-09-26T05:14:39.342Z,99.90
2018-09-26T05:15:42.635Z,99.90
2018-09-26T05:16:45.935Z,99.90
2018-09-26T05:17:49.230Z,99.90
2018-09-26T05:18:52.583Z,99.90
2018-09-26T05:19:55.972Z,99.90
2018-09-26T05:20:59.299Z,99.90
2018-09-26T05:22:02.603Z,99.90
2018-09-26T05:23:05.922Z,99.90
2018-09-26T05:24:09.236Z,99.90
2018-09-26T05:25:12.572Z,99.90
2018-09-26T05:26:15.919Z,99.90
2018-09-26T05:27:19.243Z,99.90
2018-09-26T05:28:22.544Z,99.90
2018-09-26T05:29:25.864Z,99.90
2018-09-26T05:30:29.348Z,99.90
2018-09-26T05:31:32.624Z,99.90
2018-09-26T05:32:35.920Z,99.90
2018-09-26T05:33:39.214Z,99.90
2018-09-26T05:34:42.520Z,99.90
2018-09-26T05:35:45.870Z,99.90
2018-09-26T05:36:49.242Z,99.90
2018-09-26T05:37:52.609Z,99.90
2018-09-26T05:38:55.917Z,99.90
2018-09-26T05:39:59.284Z,99.90
2018-09-26T05:41:02.621Z,99.90
2018-09-26T05:42:05.927Z,99.90
2018-09-26T05:43:09.296Z,99.90
2018-09-26T05:44:12.588Z,99.90
2018-09-26T05:45:15.967Z,99.90
2018-09-26T05:46:19.267Z,99.90
2018-09-26T05:47:22.563Z,99.90
2018-09-26T05:48:25.863Z,99.90
2018-09-26T05:49:29.217Z,99.90
2018-09-26T05:50:32.571Z,99.90
2018-09-26T05:51:35.877Z,99.90
2018-09-26T05:52:39.200Z,99.90
2018-09-26T05:53:42.531Z,99.90
2018-09-26T05:54:45.859Z,99.90
2018-09-26T05:55:49.162Z,99.90
2018-09-26T05:56:52.458Z,99.90
2018-09-26T05:57:55.777Z,99.90
2018-09-26T05:58:59.099Z,99.90
2018-09-26T06:00:02.423Z,99.90
2018-09-26T06:01:05.809Z,99.90
2018-09-26T06:02:09.119Z,99.90
2018-09-26T06:03:12.424Z,99.90
2018-09-26T06:04:15.765Z,99.90
2018-09-26T06:05:19.091Z,99.90
2018-09-26T06:06:22.394Z,99.90
2018-09-26T06:07:25.694Z,99.90
2018-09-26T06:08:29.026Z,99.90
2018-09-26T06:09:32.335Z,99.90
2018-09-26T06:10:35.679Z,99.90
2018-09-26T06:11:38.979Z,99.90
2018-09-26T06:12:42.344Z,99.90
2018-09-26T06:13:45.638Z,99.90
2018-09-26T06:14:48.986Z,99.90
2018-09-26T06:15:52.315Z,99.90
2018-09-26T06:16:55.610Z,99.90
2018-09-26T06:17:58.903Z,99.90
2018-09-26T06:19:02.262Z,99.90
2018-09-26T06:20:05.744Z,99.90
2018-09-26T06:21:09.445Z,99.90
2018-09-26T06:22:12.773Z,99.90
2018-09-26T06:23:16.130Z,99.90
2018-09-26T06:24:19.462Z,99.90
2018-09-26T06:25:22.791Z,99.90
2018-09-26T06:26:26.097Z,99.90
2018-09-26T06:27:29.435Z,99.90
2018-09-26T06:28:32.777Z,99.90
2018-09-26T06:29:36.153Z,99.90
2018-09-26T06:30:39.471Z,99.90
2018-09-26T06:31:42.845Z,99.90
2018-09-26T06:32:46.192Z,99.90
2018-09-26T06:33:49.527Z,99.90
2018-09-26T06:34:52.849Z,99.90
2018-09-26T06:35:56.199Z,99.90
2018-09-26T06:36:59.508Z,99.90
2018-09-26T06:38:02.883Z,99.90
2018-09-26T06:39:09.029Z,99.90
2018-09-26T06:40:12.341Z,99.90
2018-09-26T06:41:15.675Z,99.90
2018-09-26T06:42:18.983Z,99.90
2018-09-26T06:43:22.295Z,99.90
2018-09-26T06:44:25.622Z,99.90
2018-09-26T06:45:28.938Z,99.90
2018-09-26T06:46:32.287Z,99.90
2018-09-26T06:47:35.653Z,99.90
2018-09-26T06:48:38.963Z,99.90
2018-09-26T06:49:42.354Z,99.90
2018-09-26T06:50:45.683Z,99.90
2018-09-26T06:51:49.011Z,99.90
2018-09-26T06:52:52.334Z,99.90
2018-09-26T06:53:55.717Z,99.90
2018-09-26T06:54:59.046Z,99.90
2018-09-26T06:56:02.480Z,99.90
2018-09-26T06:57:05.803Z,99.90
2018-09-26T06:58:09.112Z,99.90
2018-09-26T06:59:12.417Z,99.90
2018-09-26T07:00:15.780Z,99.90
2018-09-26T07:01:19.109Z,99.90
2018-09-26T07:02:22.406Z,99.90
2018-09-26T07:03:25.755Z,99.90
2018-09-26T07:04:29.088Z,99.90
2018-09-26T07:05:32.446Z,99.90
2018-09-26T07:06:35.915Z,99.90
2018-09-26T07:07:39.255Z,99.90
2018-09-26T07:08:42.618Z,99.90
2018-09-26T07:09:45.928Z,99.90
2018-09-26T07:10:49.299Z,99.90
2018-09-26T07:11:52.615Z,99.90
2018-09-26T07:12:55.924Z,99.90
2018-09-26T07:13:59.232Z,99.90
2018-09-26T07:15:02.539Z,99.90
2018-09-26T07:16:05.951Z,99.90
2018-09-26T07:17:09.313Z,99.90
2018-09-26T07:18:12.688Z,99.90
2018-09-26T07:19:16.006Z,99.90
2018-09-26T07:20:19.321Z,99.90
2018-09-26T07:21:22.632Z,99.90
2018-09-26T07:22:25.966Z,99.90
2018-09-26T07:23:29.270Z,99.90
2018-09-26T07:24:32.812Z,99.90
2018-09-26T07:25:36.128Z,99.90
2018-09-26T07:26:39.506Z,99.90
2018-09-26T07:27:42.850Z,99.90
2018-09-26T07:28:46.164Z,99.90
2018-09-26T07:29:49.470Z,99.90
2018-09-26T07:30:52.801Z,99.90
2018-09-26T07:31:56.126Z,99.90
2018-09-26T07:32:59.478Z,99.90
2018-09-26T07:34:02.778Z,99.90
2018-09-26T07:35:06.162Z,99.90
2018-09-26T07:36:09.466Z,99.90
2018-09-26T07:37:12.791Z,99.90
2018-09-26T07:38:16.173Z,99.90
2018-09-26T07:39:19.491Z,99.90
2018-09-26T07:40:22.799Z,99.90
2018-09-26T07:41:26.128Z,99.90
2018-09-26T07:42:29.472Z,99.90
2018-09-26T07:43:32.809Z,99.90
2018-09-26T07:44:36.191Z,99.90
2018-09-26T07:45:39.536Z,99.90
2018-09-26T07:46:42.843Z,99.90
2018-09-26T07:47:46.183Z,99.90
2018-09-26T07:48:49.497Z,99.90
2018-09-26T07:49:52.847Z,99.90
2018-09-26T07:50:56.207Z,99.90
2018-09-26T07:51:59.522Z,99.90
2018-09-26T07:53:02.876Z,99.90
2018-09-26T07:54:06.207Z,99.90
2018-09-26T07:55:09.567Z,99.90
2018-09-26T07:56:12.908Z,99.90
2018-09-26T07:57:16.234Z,99.90
2018-09-26T07:58:19.568Z,99.90
2018-09-26T07:59:22.899Z,99.90
2018-09-26T08:00:26.214Z,99.90
2018-09-26T08:01:29.562Z,99.90
2018-09-26T08:02:32.904Z,99.90
2018-09-26T08:03:36.235Z,99.90
2018-09-26T08:04:39.551Z,99.90
2018-09-26T08:05:42.850Z,99.90
2018-09-26T08:06:46.192Z,99.90
2018-09-26T08:07:49.511Z,99.90
2018-09-26T08:08:52.817Z,99.90
2018-09-26T08:09:56.138Z,99.90
2018-09-26T08:10:59.462Z,99.90
2018-09-26T08:12:02.806Z,99.90
2018-09-26T08:13:06.111Z,99.90
2018-09-26T08:14:09.419Z,99.90
2018-09-26T08:15:12.731Z,99.90
2018-09-26T08:16:16.067Z,99.90
2018-09-26T08:17:19.442Z,99.90
2018-09-26T08:18:22.767Z,99.90
2018-09-26T08:19:26.139Z,99.90
2018-09-26T08:20:29.454Z,99.90
2018-09-26T08:21:32.811Z,99.90
2018-09-26T08:22:36.151Z,99.90
2018-09-26T08:23:39.546Z,99.90
2018-09-26T08:24:42.859Z,99.90
2018-09-26T08:25:46.174Z,99.90
2018-09-26T08:26:49.523Z,99.90
2018-09-26T08:27:52.862Z,99.90
2018-09-26T08:28:56.175Z,99.90
2018-09-26T08:29:59.553Z,99.90
2018-09-26T08:31:02.865Z,99.90
2018-09-26T08:32:06.391Z,99.90
2018-09-26T08:33:09.711Z,99.90
2018-09-26T08:34:13.063Z,99.90
2018-09-26T08:35:16.379Z,99.90
2018-09-26T08:36:19.697Z,99.90
2018-09-26T08:37:23.047Z,99.90
2018-09-26T08:38:26.402Z,99.90
2018-09-26T08:39:29.731Z,99.90
2018-09-26T08:40:33.035Z,99.90
2018-09-26T08:41:36.395Z,99.90
2018-09-26T08:42:39.703Z,99.90
2018-09-26T08:43:43.055Z,99.90
2018-09-26T08:44:46.366Z,99.90
2018-09-26T08:45:49.699Z,99.90
2018-09-26T08:46:53.010Z,99.90
2018-09-26T08:47:56.360Z,99.90
2018-09-26T08:48:59.670Z,99.90
2018-09-26T08:50:02.969Z,99.90
2018-09-26T08:51:06.377Z,99.90
2018-09-26T08:52:09.670Z,99.90
2018-09-26T08:53:12.995Z,99.90
2018-09-26T08:54:16.295Z,99.90
2018-09-26T08:55:19.617Z,99.90
2018-09-26T08:56:22.903Z,99.90
2018-09-26T08:57:26.231Z,99.90
2018-09-26T08:58:29.563Z,99.90
2018-09-26T08:59:32.869Z,99.90
2018-09-26T09:00:37.507Z,99.90
2018-09-26T09:01:44.719Z,99.90
2018-09-26T09:02:48.145Z,99.90
2018-09-26T09:03:51.445Z,99.90
2018-09-26T09:04:54.786Z,99.90
2018-09-26T09:05:58.162Z,98.60
2018-09-26T09:07:01.471Z,97.40
2018-09-26T09:08:04.855Z,97.80
2018-09-26T09:09:08.660Z,96.70
2018-09-26T09:10:11.985Z,96.70
2018-09-26T09:11:15.288Z,96.70
2018-09-26T09:12:18.806Z,96.70
2018-09-26T09:13:22.145Z,96.50
2018-09-26T09:14:25.531Z,96.20
2018-09-26T09:15:29.031Z,94.40
2018-09-26T09:16:32.461Z,93.50
2018-09-26T09:17:35.851Z,93.50
2018-09-26T09:18:39.200Z,93.50
2018-09-26T09:19:42.527Z,91.80
2018-09-26T09:20:45.887Z,91.80
2018-09-26T09:21:49.215Z,91.80
2018-09-26T09:22:52.542Z,90.60
2018-09-26T09:23:55.859Z,90.40
2018-09-26T09:24:59.190Z,89.90
2018-09-26T09:26:02.740Z,88.30
2018-09-26T09:27:06.078Z,87.20
2018-09-26T09:28:09.403Z,87.50
2018-09-26T09:29:12.711Z,86.70
2018-09-26T09:30:16.034Z,85.60
2018-09-26T09:31:19.387Z,86.00
2018-09-26T09:32:22.811Z,83.80
2018-09-26T09:33:26.166Z,84.40
2018-09-26T09:34:29.484Z,84.10
2018-09-26T09:35:32.813Z,83.00
2018-09-26T09:36:36.212Z,84.50
2018-09-26T09:37:39.526Z,84.40
2018-09-26T09:38:42.905Z,83.00
2018-09-26T09:39:46.223Z,82.30
2018-09-26T09:40:49.544Z,82.50
2018-09-26T09:41:52.859Z,80.50
2018-09-26T09:42:56.208Z,79.30
2018-09-26T09:43:59.603Z,78.00
2018-09-26T09:45:02.899Z,77.80
2018-09-26T09:46:06.722Z,77.50
2018-09-26T09:47:10.039Z,77.40
2018-09-26T09:48:13.367Z,77.60
2018-09-26T09:49:16.678Z,78.10
2018-09-26T09:50:20.132Z,76.20
2018-09-26T09:51:23.411Z,76.20
2018-09-26T09:52:26.883Z,78.20
2018-09-26T09:53:30.212Z,75.30
2018-09-26T09:54:33.613Z,73.40
2018-09-26T09:55:36.971Z,74.10
2018-09-26T09:56:40.333Z,73.10
2018-09-26T09:57:43.760Z,72.50
2018-09-26T09:58:47.094Z,74.60
2018-09-26T09:59:50.494Z,75.30
2018-09-26T10:01:30.696Z,74.00
2018-09-26T10:02:34.084Z,75.10
2018-09-26T10:03:37.351Z,76.20
2018-09-26T10:04:42.511Z,74.40
2018-09-26T10:05:47.128Z,76.40
2018-09-26T10:06:51.055Z,76.40
2018-09-26T10:07:55.040Z,76.60
2018-09-26T10:08:58.931Z,74.90
2018-09-26T10:10:02.497Z,74.60
2018-09-26T10:11:05.907Z,73.60
2018-09-26T10:12:09.259Z,74.40
2018-09-26T10:13:12.635Z,75.20
2018-09-26T10:14:15.979Z,74.10
2018-09-26T10:15:19.300Z,73.80
2018-09-26T10:16:22.670Z,74.00
2018-09-26T10:17:26.061Z,74.70
2018-09-26T10:18:29.375Z,73.30
2018-09-26T10:19:32.704Z,72.60
2018-09-26T10:20:36.023Z,71.80
2018-09-26T10:21:39.429Z,72.10
2018-09-26T10:22:42.815Z,71.10
2018-09-26T10:23:46.877Z,71.40
2018-09-26T10:24:53.585Z,70.80
2018-09-26T10:25:57.520Z,70.60
2018-09-26T10:27:01.939Z,69.10
2018-09-26T10:28:06.018Z,70.10
2018-09-26T10:29:09.933Z,71.50
2018-09-26T10:30:13.272Z,70.70
2018-09-26T10:31:16.731Z,72.40
2018-09-26T10:32:20.150Z,72.90
2018-09-26T10:33:23.432Z,72.10
2018-09-26T10:34:26.880Z,71.30
2018-09-26T10:35:30.591Z,72.90
2018-09-26T10:36:33.955Z,71.10
2018-09-26T10:37:37.393Z,70.70
2018-09-26T10:38:40.887Z,70.90
2018-09-26T10:39:44.314Z,71.40
2018-09-26T10:40:47.689Z,70.80
2018-09-26T10:41:51.019Z,70.70
2018-09-26T10:42:54.363Z,72.40
2018-09-26T10:43:57.731Z,74.40
2018-09-26T10:45:01.172Z,70.70
2018-09-26T10:46:04.730Z,70.30
2018-09-26T10:47:08.201Z,70.10
2018-09-26T10:48:11.524Z,70.00
2018-09-26T10:49:14.882Z,71.40
2018-09-26T10:50:18.243Z,72.30
2018-09-26T10:51:21.547Z,72.70
2018-09-26T10:52:24.860Z,71.60
2018-09-26T10:53:28.210Z,72.00
2018-09-26T10:54:31.534Z,73.30
2018-09-26T10:55:35.202Z,74.00
2018-09-26T10:56:38.633Z,71.90
2018-09-26T10:57:41.912Z,71.90
2018-09-26T10:58:45.250Z,70.90
2018-09-26T10:59:48.610Z,70.10
2018-09-26T11:00:51.951Z,69.90
2018-09-26T11:01:55.327Z,70.30
2018-09-26T11:02:58.723Z,69.50
2018-09-26T11:04:02.055Z,69.00
2018-09-26T11:05:05.676Z,69.90
2018-09-26T11:06:09.038Z,69.60
2018-09-26T11:07:12.447Z,70.00
2018-09-26T11:08:15.775Z,69.90
2018-09-26T11:09:19.111Z,70.20
2018-09-26T11:10:22.552Z,69.90
2018-09-26T11:11:25.815Z,70.60
2018-09-26T11:12:29.193Z,72.90
2018-09-26T11:13:32.835Z,73.70
2018-09-26T11:14:36.688Z,71.10
2018-09-26T11:15:40.107Z,72.40
2018-09-26T11:16:43.471Z,71.90
2018-09-26T11:17:47.113Z,70.90
2018-09-26T11:18:50.613Z,72.50
2018-09-26T11:19:53.913Z,71.80
2018-09-26T11:20:57.255Z,71.60
2018-09-26T11:22:01.848Z,71.30
2018-09-26T11:23:06.225Z,71.00
2018-09-26T11:24:10.436Z,70.00
2018-09-26T11:25:14.813Z,70.20
2018-09-26T11:26:19.044Z,69.50
2018-09-26T11:27:22.658Z,70.50
2018-09-26T11:28:26.097Z,70.70
2018-09-26T11:29:29.340Z,71.10
2018-09-26T11:30:32.643Z,70.20
2018-09-26T11:31:36.099Z,71.10
2018-09-26T11:32:39.403Z,72.40
2018-09-26T11:33:42.806Z,74.10
2018-09-26T11:34:46.385Z,74.20
2018-09-26T11:35:50.112Z,74.60
2018-09-26T11:36:53.659Z,73.80
2018-09-26T11:37:56.980Z,73.70
2018-09-26T11:39:00.351Z,73.60
2018-09-26T11:40:03.742Z,73.00
2018-09-26T11:41:07.352Z,74.00
2018-09-26T11:42:11.046Z,73.20
2018-09-26T11:43:14.396Z,74.10
2018-09-26T11:44:17.768Z,72.60
2018-09-26T11:45:21.245Z,72.30
2018-09-26T11:46:24.642Z,72.60
2018-09-26T11:47:28.194Z,73.50
2018-09-26T11:48:31.767Z,73.10
2018-09-26T11:49:35.785Z,73.00
2018-09-26T11:50:40.327Z,72.60
2018-09-26T11:51:43.810Z,72.20
2018-09-26T11:52:47.138Z,70.80
2018-09-26T11:53:50.485Z,72.20
2018-09-26T11:54:53.805Z,73.40
2018-09-26T11:55:57.259Z,70.90
2018-09-26T11:57:00.527Z,71.50
2018-09-26T11:58:03.957Z,71.70
2018-09-26T11:59:07.471Z,73.30
2018-09-26T12:00:10.811Z,72.40
2018-09-26T12:01:14.123Z,72.30
2018-09-26T12:02:17.507Z,71.50
2018-09-26T12:03:20.833Z,72.30
2018-09-26T12:04:24.227Z,72.30
2018-09-26T12:05:27.527Z,71.20
2018-09-26T12:06:30.964Z,71.40
2018-09-26T12:07:34.417Z,70.50
2018-09-26T12:08:37.675Z,71.10
2018-09-26T12:09:40.984Z,72.40
2018-09-26T12:10:44.314Z,72.90
2018-09-26T12:11:47.699Z,72.20
2018-09-26T12:12:51.055Z,71.50
2018-09-26T12:13:54.447Z,72.10
2018-09-26T12:14:57.797Z,71.80
2018-09-26T12:16:01.103Z,70.60
2018-09-26T12:17:04.532Z,71.40
2018-09-26T12:18:08.451Z,71.00
2018-09-26T12:19:12.294Z,71.80
2018-09-26T12:20:16.129Z,71.20
2018-09-26T12:21:30.253Z,72.20
2018-09-26T12:22:23.108Z,71.00
2018-09-26T12:23:26.547Z,70.20
2018-09-26T12:24:29.919Z,70.30
2018-09-26T12:25:34.399Z,70.30
2018-09-26T12:26:38.159Z,71.10
2018-09-26T12:27:41.541Z,71.00
2018-09-26T12:28:44.968Z,72.40
2018-09-26T12:29:49.440Z,71.70
2018-09-26T12:30:53.759Z,69.80
2018-09-26T12:31:57.517Z,68.00
2018-09-26T12:33:03.436Z,69.20
2018-09-26T12:34:07.461Z,70.30
2018-09-26T12:35:12.046Z,70.50
2018-09-26T12:36:15.718Z,70.30
2018-09-26T12:37:19.081Z,69.90
2018-09-26T12:38:23.034Z,70.10
2018-09-26T12:39:26.365Z,70.50
2018-09-26T12:40:29.719Z,69.90
2018-09-26T12:41:33.053Z,69.20
2018-09-26T12:42:36.442Z,67.40
2018-09-26T12:43:39.787Z,68.00
2018-09-26T12:44:43.135Z,67.80
2018-09-26T12:45:46.504Z,67.90
2018-09-26T12:46:49.909Z,66.50
2018-09-26T12:47:53.244Z,64.90
2018-09-26T12:48:56.559Z,64.60
2018-09-26T12:49:59.962Z,64.30
2018-09-26T12:51:03.294Z,65.80
2018-09-26T12:52:06.757Z,67.20
2018-09-26T12:53:10.071Z,68.30
2018-09-26T12:54:13.420Z,66.90
2018-09-26T12:55:16.799Z,66.40
2018-09-26T12:56:20.138Z,65.00
2018-09-26T12:57:23.497Z,65.10
2018-09-26T12:58:26.804Z,66.00
2018-09-26T12:59:30.175Z,65.10
2018-09-26T13:00:33.616Z,65.20
2018-09-26T13:01:36.875Z,65.30
2018-09-26T13:02:43.211Z,66.20
2018-09-26T13:03:46.538Z,65.20
2018-09-26T13:04:49.903Z,64.00
2018-09-26T13:05:53.240Z,64.20
2018-09-26T13:06:56.584Z,64.80
2018-09-26T13:07:59.935Z,65.20
2018-09-26T13:09:03.355Z,65.00
2018-09-26T13:10:06.727Z,64.80
2018-09-26T13:11:10.046Z,65.60
2018-09-26T13:12:13.463Z,66.40
2018-09-26T13:13:16.767Z,65.20
2018-09-26T13:14:20.418Z,65.20
2018-09-26T13:15:24.290Z,65.40
2018-09-26T13:16:28.052Z,64.20
2018-09-26T13:17:31.909Z,62.50
2018-09-26T13:18:35.903Z,63.50
2018-09-26T13:19:40.228Z,61.70
2018-09-26T13:20:44.200Z,61.00
2018-09-26T13:21:48.285Z,61.30
2018-09-26T13:22:52.162Z,61.90
2018-09-26T13:23:55.967Z,60.70
2018-09-26T13:24:59.941Z,60.00
2018-09-26T13:26:05.876Z,60.40
2018-09-26T13:27:09.335Z,60.90
2018-09-26T13:28:12.692Z,61.90
2018-09-26T13:29:16.008Z,62.70
2018-09-26T13:30:19.400Z,62.60
2018-09-26T13:31:22.715Z,61.20
2018-09-26T13:32:26.082Z,61.00
2018-09-26T13:33:29.407Z,60.60
2018-09-26T13:34:32.769Z,61.20
2018-09-26T13:35:36.184Z,61.60
2018-09-26T13:36:39.512Z,61.50
2018-09-26T13:37:42.853Z,60.90